sensor_id;sensor_type;location;lat;lon;timestamp;pressure;altitude;pressure_sealevel;temperature;humidity
75640;BME280;64233;51.486;6.332;2024-02-23T00:00:39;137814.72;;;3.38;100.00
75640;BME280;64233;51.486;6.332;2024-02-23T00:03:05;137131.84;;;3.32;100.00
75640;BME280;64233;51.486;6.332;2024-02-23T00:05:30;137233.13;;;3.42;100.00
75640;BME280;64233;51.486;6.332;2024-02-23T00:07:55;137542.19;;;3.33;100.00
75640;BME280;64233;51.486;6.332;2024-02-23T00:10:21;137579.66;;;3.33;100.00
75640;BME280;64233;51.486;6.332;2024-02-23T00:12:46;137665.34;;;3.33;100.00
75640;BME280;64233;51.486;6.332;2024-02-23T00:15:12;136841.56;;;3.25;100.00
75640;BME280;64233;51.486;6.332;2024-02-23T00:17:38;137001.84;;;3.06;100.00
75640;BME280;64233;51.486;6.332;2024-02-23T00:20:04;137458.97;;;2.98;100.00
75640;BME280;64233;51.486;6.332;2024-02-23T00:22:30;137388.28;;;2.97;100.00
75640;BME280;64233;51.486;6.332;2024-02-23T00:24:57;138127.06;;;3.03;100.00
75640;BME280;64233;51.486;6.332;2024-02-23T00:27:22;138254.75;;;3.19;100.00
75640;BME280;64233;51.486;6.332;2024-02-23T00:29:48;137205.53;;;3.35;100.00
75640;BME280;64233;51.486;6.332;2024-02-23T00:32:13;137091.50;;;3.61;100.00
75640;BME280;64233;51.486;6.332;2024-02-23T00:34:38;140390.91;;;3.79;100.00
75640;BME280;64233;51.486;6.332;2024-02-23T00:37:04;138754.22;;;3.80;100.00
75640;BME280;64233;51.486;6.332;2024-02-23T00:39:30;136887.31;;;3.82;100.00
75640;BME280;64233;51.486;6.332;2024-02-23T00:41:57;136288.16;;;3.86;100.00
75640;BME280;64233;51.486;6.332;2024-02-23T00:44:22;137393.75;;;3.88;100.00
75640;BME280;64233;51.486;6.332;2024-02-23T00:46:47;136646.91;;;3.89;100.00
75640;BME280;64233;51.486;6.332;2024-02-23T00:49:13;135584.16;;;3.85;100.00
75640;BME280;64233;51.486;6.332;2024-02-23T00:51:38;134262.25;;;3.83;100.00
75640;BME280;64233;51.486;6.332;2024-02-23T00:54:04;134920.94;;;3.83;100.00
75640;BME280;64233;51.486;6.332;2024-02-23T00:56:29;132181.06;;;3.88;100.00
75640;BME280;64233;51.486;6.332;2024-02-23T00:58:54;134257.66;;;3.87;100.00
75640;BME280;64233;51.486;6.332;2024-02-23T01:01:20;132558.38;;;3.86;100.00
75640;BME280;64233;51.486;6.332;2024-02-23T01:03:45;131501.38;;;3.91;100.00
75640;BME280;64233;51.486;6.332;2024-02-23T01:06:10;130128.41;;;3.89;100.00
75640;BME280;64233;51.486;6.332;2024-02-23T01:08:35;131706.50;;;4.01;100.00
75640;BME280;64233;51.486;6.332;2024-02-23T01:11:01;131680.22;;;3.94;100.00
75640;BME280;64233;51.486;6.332;2024-02-23T01:13:26;133289.94;;;3.81;100.00
75640;BME280;64233;51.486;6.332;2024-02-23T01:15:52;133113.97;;;3.85;100.00
75640;BME280;64233;51.486;6.332;2024-02-23T01:18:19;133301.56;;;3.90;100.00
75640;BME280;64233;51.486;6.332;2024-02-23T01:20:44;133504.66;;;3.83;100.00
75640;BME280;64233;51.486;6.332;2024-02-23T01:23:09;132872.25;;;3.92;100.00
75640;BME280;64233;51.486;6.332;2024-02-23T01:25:34;133064.75;;;4.01;100.00
75640;BME280;64233;51.486;6.332;2024-02-23T01:28:00;133990.50;;;3.97;100.00
75640;BME280;64233;51.486;6.332;2024-02-23T01:30:25;134016.38;;;3.90;100.00
75640;BME280;64233;51.486;6.332;2024-02-23T01:32:50;134253.38;;;3.96;100.00
75640;BME280;64233;51.486;6.332;2024-02-23T01:35:16;134790.25;;;4.08;100.00
75640;BME280;64233;51.486;6.332;2024-02-23T01:37:41;135088.66;;;4.00;100.00
75640;BME280;64233;51.486;6.332;2024-02-23T01:40:07;136333.69;;;3.92;100.00
75640;BME280;64233;51.486;6.332;2024-02-23T01:42:32;135563.38;;;4.07;100.00
75640;BME280;64233;51.486;6.332;2024-02-23T01:44:58;136740.63;;;4.11;100.00
75640;BME280;64233;51.486;6.332;2024-02-23T01:47:25;136417.03;;;4.25;100.00
75640;BME280;64233;51.486;6.332;2024-02-23T01:49:51;137727.56;;;4.17;100.00
75640;BME280;64233;51.486;6.332;2024-02-23T01:52:17;138165.56;;;4.11;100.00
75640;BME280;64233;51.486;6.332;2024-02-23T01:54:44;137836.94;;;4.11;100.00
75640;BME280;64233;51.486;6.332;2024-02-23T01:57:09;138869.53;;;4.14;100.00
75640;BME280;64233;51.486;6.332;2024-02-23T01:59:36;138481.44;;;4.16;100.00
75640;BME280;64233;51.486;6.332;2024-02-23T02:02:03;140430.56;;;4.21;100.00
75640;BME280;64233;51.486;6.332;2024-02-23T02:04:29;140103.59;;;4.27;100.00
75640;BME280;64233;51.486;6.332;2024-02-23T02:06:55;139849.91;;;4.24;100.00
75640;BME280;64233;51.486;6.332;2024-02-23T02:09:21;141304.50;;;4.20;100.00
75640;BME280;64233;51.486;6.332;2024-02-23T02:11:47;140667.13;;;4.31;100.00
75640;BME280;64233;51.486;6.332;2024-02-23T02:14:13;141830.69;;;4.27;100.00
75640;BME280;64233;51.486;6.332;2024-02-23T02:16:39;142017.09;;;4.16;100.00
75640;BME280;64233;51.486;6.332;2024-02-23T02:19:04;142187.66;;;4.15;100.00
75640;BME280;64233;51.486;6.332;2024-02-23T02:21:31;142676.19;;;4.07;100.00
75640;BME280;64233;51.486;6.332;2024-02-23T02:23:56;144181.63;;;4.00;100.00
75640;BME280;64233;51.486;6.332;2024-02-23T02:26:22;143294.88;;;4.03;100.00
75640;BME280;64233;51.486;6.332;2024-02-23T02:28:47;143508.41;;;4.02;100.00
75640;BME280;64233;51.486;6.332;2024-02-23T02:31:12;143879.81;;;3.86;100.00
75640;BME280;64233;51.486;6.332;2024-02-23T02:33:40;143374.88;;;4.00;100.00
75640;BME280;64233;51.486;6.332;2024-02-23T02:36:05;143864.69;;;3.96;100.00
75640;BME280;64233;51.486;6.332;2024-02-23T02:38:30;144656.91;;;3.90;100.00
75640;BME280;64233;51.486;6.332;2024-02-23T02:40:58;146571.69;;;3.79;100.00
75640;BME280;64233;51.486;6.332;2024-02-23T02:43:25;146541.97;;;3.85;100.00
75640;BME280;64233;51.486;6.332;2024-02-23T02:45:50;147265.47;;;3.91;100.00
75640;BME280;64233;51.486;6.332;2024-02-23T02:48:16;148107.13;;;3.76;100.00
75640;BME280;64233;51.486;6.332;2024-02-23T02:50:42;147087.41;;;3.73;100.00
75640;BME280;64233;51.486;6.332;2024-02-23T02:53:07;146875.78;;;3.71;100.00
75640;BME280;64233;51.486;6.332;2024-02-23T02:55:33;149444.84;;;3.83;100.00
75640;BME280;64233;51.486;6.332;2024-02-23T02:57:58;150933.16;;;3.66;100.00
75640;BME280;64233;51.486;6.332;2024-02-23T03:00:24;150093.31;;;3.67;100.00
75640;BME280;64233;51.486;6.332;2024-02-23T03:02:49;148647.28;;;3.70;100.00
75640;BME280;64233;51.486;6.332;2024-02-23T03:05:14;150327.09;;;3.60;100.00
75640;BME280;64233;51.486;6.332;2024-02-23T03:07:40;149141.06;;;3.66;100.00
75640;BME280;64233;51.486;6.332;2024-02-23T03:10:06;149263.38;;;3.66;100.00
75640;BME280;64233;51.486;6.332;2024-02-23T03:12:31;149634.09;;;3.66;100.00
75640;BME280;64233;51.486;6.332;2024-02-23T03:14:57;149117.00;;;3.54;100.00
75640;BME280;64233;51.486;6.332;2024-02-23T03:17:23;149445.31;;;3.63;100.00
75640;BME280;64233;51.486;6.332;2024-02-23T03:19:48;148908.75;;;3.60;100.00
75640;BME280;64233;51.486;6.332;2024-02-23T03:22:15;148684.84;;;3.58;100.00
75640;BME280;64233;51.486;6.332;2024-02-23T03:24:40;148189.72;;;3.68;100.00
75640;BME280;64233;51.486;6.332;2024-02-23T03:27:06;148516.19;;;3.62;100.00
75640;BME280;64233;51.486;6.332;2024-02-23T03:29:31;149119.56;;;3.66;100.00
75640;BME280;64233;51.486;6.332;2024-02-23T03:31:57;149311.13;;;3.74;100.00
75640;BME280;64233;51.486;6.332;2024-02-23T03:34:22;148814.84;;;3.83;100.00
75640;BME280;64233;51.486;6.332;2024-02-23T03:36:48;149331.22;;;3.81;100.00
75640;BME280;64233;51.486;6.332;2024-02-23T03:39:13;150186.97;;;3.81;100.00
75640;BME280;64233;51.486;6.332;2024-02-23T03:41:39;150246.81;;;3.71;100.00
75640;BME280;64233;51.486;6.332;2024-02-23T03:44:04;150684.47;;;3.73;100.00
75640;BME280;64233;51.486;6.332;2024-02-23T03:46:29;150832.03;;;3.81;100.00
75640;BME280;64233;51.486;6.332;2024-02-23T03:48:55;151635.78;;;3.74;100.00
75640;BME280;64233;51.486;6.332;2024-02-23T03:51:20;151222.28;;;3.86;100.00
75640;BME280;64233;51.486;6.332;2024-02-23T03:53:46;152171.41;;;3.86;100.00
75640;BME280;64233;51.486;6.332;2024-02-23T03:56:12;150396.03;;;3.77;100.00
75640;BME280;64233;51.486;6.332;2024-02-23T03:58:37;151715.91;;;3.70;100.00
75640;BME280;64233;51.486;6.332;2024-02-23T04:01:02;151381.22;;;3.77;100.00
75640;BME280;64233;51.486;6.332;2024-02-23T04:03:28;151330.19;;;3.84;100.00
75640;BME280;64233;51.486;6.332;2024-02-23T04:05:53;151745.38;;;3.92;100.00
75640;BME280;64233;51.486;6.332;2024-02-23T04:08:18;152115.09;;;3.85;100.00
75640;BME280;64233;51.486;6.332;2024-02-23T04:10:44;152272.84;;;3.90;100.00
75640;BME280;64233;51.486;6.332;2024-02-23T04:13:09;152799.63;;;4.00;100.00
75640;BME280;64233;51.486;6.332;2024-02-23T04:15:35;152772.03;;;3.96;100.00
75640;BME280;64233;51.486;6.332;2024-02-23T04:18:01;153122.94;;;3.96;100.00
75640;BME280;64233;51.486;6.332;2024-02-23T04:20:26;153442.72;;;4.07;100.00
75640;BME280;64233;51.486;6.332;2024-02-23T04:22:51;153674.72;;;4.12;100.00
75640;BME280;64233;51.486;6.332;2024-02-23T04:25:16;154213.81;;;4.16;100.00
75640;BME280;64233;51.486;6.332;2024-02-23T04:27:42;154549.03;;;4.05;100.00
75640;BME280;64233;51.486;6.332;2024-02-23T04:30:09;154408.94;;;4.06;100.00
75640;BME280;64233;51.486;6.332;2024-02-23T04:32:35;154032.31;;;4.05;100.00
75640;BME280;64233;51.486;6.332;2024-02-23T04:35:00;154806.59;;;4.02;100.00
75640;BME280;64233;51.486;6.332;2024-02-23T04:37:25;154597.84;;;3.93;100.00
75640;BME280;64233;51.486;6.332;2024-02-23T04:39:51;154573.63;;;3.93;100.00
75640;BME280;64233;51.486;6.332;2024-02-23T04:42:16;154314.84;;;3.96;100.00
75640;BME280;64233;51.486;6.332;2024-02-23T04:44:41;154527.47;;;3.87;100.00
75640;BME280;64233;51.486;6.332;2024-02-23T04:47:07;154594.47;;;3.89;100.00
75640;BME280;64233;51.486;6.332;2024-02-23T04:49:34;154698.44;;;3.86;100.00
75640;BME280;64233;51.486;6.332;2024-02-23T04:51:59;154650.44;;;3.83;100.00
75640;BME280;64233;51.486;6.332;2024-02-23T04:54:24;154774.47;;;3.81;100.00
75640;BME280;64233;51.486;6.332;2024-02-23T04:56:50;154844.41;;;3.81;100.00
75640;BME280;64233;51.486;6.332;2024-02-23T04:59:15;155031.81;;;3.98;100.00
75640;BME280;64233;51.486;6.332;2024-02-23T05:01:41;154863.00;;;3.93;100.00
75640;BME280;64233;51.486;6.332;2024-02-23T05:04:06;154881.09;;;3.88;100.00
75640;BME280;64233;51.486;6.332;2024-02-23T05:06:31;155019.75;;;3.88;100.00
75640;BME280;64233;51.486;6.332;2024-02-23T05:08:57;154821.78;;;3.89;100.00
75640;BME280;64233;51.486;6.332;2024-02-23T05:11:22;155010.28;;;3.98;100.00
75640;BME280;64233;51.486;6.332;2024-02-23T05:13:47;155298.69;;;3.95;100.00
75640;BME280;64233;51.486;6.332;2024-02-23T05:16:16;155270.31;;;3.86;100.00
75640;BME280;64233;51.486;6.332;2024-02-23T05:18:41;155198.97;;;3.96;100.00
75640;BME280;64233;51.486;6.332;2024-02-23T05:21:07;155480.03;;;3.97;100.00
75640;BME280;64233;51.486;6.332;2024-02-23T05:23:33;155494.13;;;4.03;100.00
75640;BME280;64233;51.486;6.332;2024-02-23T05:25:58;155385.56;;;4.20;100.00
75640;BME280;64233;51.486;6.332;2024-02-23T05:28:24;155500.53;;;4.06;100.00
75640;BME280;64233;51.486;6.332;2024-02-23T05:30:49;155485.13;;;4.00;100.00
75640;BME280;64233;51.486;6.332;2024-02-23T05:33:14;155519.69;;;4.13;100.00
75640;BME280;64233;51.486;6.332;2024-02-23T05:35:40;155523.53;;;4.15;100.00
75640;BME280;64233;51.486;6.332;2024-02-23T05:38:05;155510.78;;;4.10;100.00
75640;BME280;64233;51.486;6.332;2024-02-23T05:40:31;155495.38;;;4.04;100.00
75640;BME280;64233;51.486;6.332;2024-02-23T05:42:57;155481.31;;;3.98;100.00
75640;BME280;64233;51.486;6.332;2024-02-23T05:45:23;155527.38;;;4.17;100.00
75640;BME280;64233;51.486;6.332;2024-02-23T05:47:48;155508.19;;;4.09;100.00
75640;BME280;64233;51.486;6.332;2024-02-23T05:50:14;155512.03;;;4.10;100.00
75640;BME280;64233;51.486;6.332;2024-02-23T05:52:39;155519.69;;;4.13;100.00
75640;BME280;64233;51.486;6.332;2024-02-23T05:55:05;155526.09;;;4.16;100.00
75640;BME280;64233;51.486;6.332;2024-02-23T05:57:30;155532.50;;;4.19;100.00
75640;BME280;64233;51.486;6.332;2024-02-23T05:59:56;155531.19;;;4.18;100.00
75640;BME280;64233;51.486;6.332;2024-02-23T06:02:22;155544.03;;;4.23;100.00
75640;BME280;64233;51.486;6.332;2024-02-23T06:04:48;155510.78;;;4.10;100.00
75640;BME280;64233;51.486;6.332;2024-02-23T06:07:13;155528.69;;;4.17;100.00
75640;BME280;64233;51.486;6.332;2024-02-23T06:09:42;155527.38;;;4.17;100.00
75640;BME280;64233;51.486;6.332;2024-02-23T06:12:08;155551.69;;;4.26;100.00
75640;BME280;64233;51.486;6.332;2024-02-23T06:14:33;155536.34;;;4.20;100.00
75640;BME280;64233;51.486;6.332;2024-02-23T06:16:59;155537.59;;;4.21;100.00
75640;BME280;64233;51.486;6.332;2024-02-23T06:19:24;155546.59;;;4.24;100.00
75640;BME280;64233;51.486;6.332;2024-02-23T06:21:50;155572.19;;;4.35;100.00
75640;BME280;64233;51.486;6.332;2024-02-23T06:24:16;155569.59;;;4.34;100.00
75640;BME280;64233;51.486;6.332;2024-02-23T06:26:41;155578.59;;;4.37;100.00
75640;BME280;64233;51.486;6.332;2024-02-23T06:29:07;155567.06;;;4.33;100.00
75640;BME280;64233;51.486;6.332;2024-02-23T06:31:36;155555.53;;;4.28;100.00
75640;BME280;64233;51.486;6.332;2024-02-23T06:34:02;155555.53;;;4.28;100.00
75640;BME280;64233;51.486;6.332;2024-02-23T06:36:27;155577.31;;;4.37;100.00
75640;BME280;64233;51.486;6.332;2024-02-23T06:38:52;155599.06;;;4.45;100.00
75640;BME280;64233;51.486;6.332;2024-02-23T06:41:17;155577.31;;;4.37;100.00
75640;BME280;64233;51.486;6.332;2024-02-23T06:43:43;155591.41;;;4.42;100.00
75640;BME280;64233;51.486;6.332;2024-02-23T06:46:09;155601.59;;;4.46;100.00
75640;BME280;64233;51.486;6.332;2024-02-23T06:48:37;155609.31;;;4.50;100.00
75640;BME280;64233;51.486;6.332;2024-02-23T06:51:06;155615.69;;;4.52;100.00
75640;BME280;64233;51.486;6.332;2024-02-23T06:53:34;155624.66;;;4.56;100.00
75640;BME280;64233;51.486;6.332;2024-02-23T06:56:00;155622.09;;;4.55;100.00
75640;BME280;64233;51.486;6.332;2024-02-23T06:58:26;155614.41;;;4.52;100.00
75640;BME280;64233;51.486;6.332;2024-02-23T07:00:51;155629.75;;;4.58;100.00
75640;BME280;64233;51.486;6.332;2024-02-23T07:03:16;155624.66;;;4.56;100.00
75640;BME280;64233;51.486;6.332;2024-02-23T07:05:42;155625.94;;;4.56;100.00
75640;BME280;64233;51.486;6.332;2024-02-23T07:08:08;155622.09;;;4.55;100.00
75640;BME280;64233;51.486;6.332;2024-02-23T07:10:33;155655.41;;;4.68;100.00
75640;BME280;64233;51.486;6.332;2024-02-23T07:12:59;155646.41;;;4.64;100.00
75640;BME280;64233;51.486;6.332;2024-02-23T07:15:24;155647.72;;;4.65;100.00
75640;BME280;64233;51.486;6.332;2024-02-23T07:17:51;155642.56;;;4.63;100.00
75640;BME280;64233;51.486;6.332;2024-02-23T07:20:16;155664.34;;;4.72;100.00
75640;BME280;64233;51.486;6.332;2024-02-23T07:22:45;155675.88;;;4.76;100.00
75640;BME280;64233;51.486;6.332;2024-02-23T07:25:11;155664.34;;;4.72;100.00
75640;BME280;64233;51.486;6.332;2024-02-23T07:27:36;155669.47;;;4.74;100.00
75640;BME280;64233;51.486;6.332;2024-02-23T07:30:01;155666.91;;;4.73;100.00
75640;BME280;64233;51.486;6.332;2024-02-23T07:32:28;155668.16;;;4.73;100.00
75640;BME280;64233;51.486;6.332;2024-02-23T07:34:55;155674.56;;;4.76;100.00
75640;BME280;64233;51.486;6.332;2024-02-23T07:37:20;155687.41;;;4.81;100.00
75640;BME280;64233;51.486;6.332;2024-02-23T07:39:45;155696.34;;;4.85;100.00
75640;BME280;64233;51.486;6.332;2024-02-23T07:42:10;155696.34;;;4.85;100.00
75640;BME280;64233;51.486;6.332;2024-02-23T07:44:36;155696.34;;;4.85;100.00
75640;BME280;64233;51.486;6.332;2024-02-23T07:47:02;155700.16;;;4.86;100.00
75640;BME280;64233;51.486;6.332;2024-02-23T07:49:28;155716.81;;;4.93;100.00
75640;BME280;64233;51.486;6.332;2024-02-23T07:51:53;155723.25;;;4.95;100.00
75640;BME280;64233;51.486;6.332;2024-02-23T07:54:19;155729.66;;;4.98;100.00
75640;BME280;64233;51.486;6.332;2024-02-23T07:56:44;155737.31;;;5.01;100.00
75640;BME280;64233;51.486;6.332;2024-02-23T07:59:09;155742.44;;;5.03;100.00
75640;BME280;64233;51.486;6.332;2024-02-23T08:01:35;155747.56;;;5.05;100.00
75640;BME280;64233;51.486;6.332;2024-02-23T08:04:00;155730.91;;;4.98;100.00
75640;BME280;64233;51.486;6.332;2024-02-23T08:06:25;155715.56;;;4.92;100.00
75640;BME280;64233;51.486;6.332;2024-02-23T08:08:51;155727.06;;;4.97;100.00
75640;BME280;64233;51.486;6.332;2024-02-23T08:11:18;155728.34;;;4.97;100.00
75640;BME280;64233;51.486;6.332;2024-02-23T08:13:44;155719.41;;;4.94;100.00
75640;BME280;64233;51.486;6.332;2024-02-23T08:16:09;155715.56;;;4.92;100.00
75640;BME280;64233;51.486;6.332;2024-02-23T08:18:35;155737.31;;;5.01;100.00
75640;BME280;64233;51.486;6.332;2024-02-23T08:21:01;155742.44;;;5.03;100.00
75640;BME280;64233;51.486;6.332;2024-02-23T08:23:28;155765.50;;;5.12;100.00
75640;BME280;64233;51.486;6.332;2024-02-23T08:25:55;155751.41;;;5.07;100.00
75640;BME280;64233;51.486;6.332;2024-02-23T08:28:22;155756.50;;;5.09;100.00
75640;BME280;64233;51.486;6.332;2024-02-23T08:30:47;155764.22;;;5.12;100.00
75640;BME280;64233;51.486;6.332;2024-02-23T08:33:12;155778.31;;;5.17;100.00
75640;BME280;64233;51.486;6.332;2024-02-23T08:35:38;155770.59;;;5.14;100.00
75640;BME280;64233;51.486;6.332;2024-02-23T08:38:03;155766.75;;;5.13;100.00
75640;BME280;64233;51.486;6.332;2024-02-23T08:40:29;155780.84;;;5.18;100.00
75640;BME280;64233;51.486;6.332;2024-02-23T08:42:55;155770.59;;;5.14;100.00
75640;BME280;64233;51.486;6.332;2024-02-23T08:45:20;155792.41;;;5.23;100.00
75640;BME280;64233;51.486;6.332;2024-02-23T08:47:45;155797.50;;;5.25;100.00
75640;BME280;64233;51.486;6.332;2024-02-23T08:50:11;155801.34;;;5.27;100.00
75640;BME280;64233;51.486;6.332;2024-02-23T08:52:36;155810.34;;;5.30;100.00
75640;BME280;64233;51.486;6.332;2024-02-23T08:55:02;155824.41;;;5.36;100.00
75640;BME280;64233;51.486;6.332;2024-02-23T08:57:27;155835.94;;;5.41;100.00
75640;BME280;64233;51.486;6.332;2024-02-23T08:59:53;155841.03;;;5.43;100.00
75640;BME280;64233;51.486;6.332;2024-02-23T09:02:18;155846.19;;;5.45;100.00
75640;BME280;64233;51.486;6.332;2024-02-23T09:04:44;155855.13;;;5.48;100.00
75640;BME280;64233;51.486;6.332;2024-02-23T09:07:10;155853.88;;;5.48;100.00
75640;BME280;64233;51.486;6.332;2024-02-23T09:09:36;155860.28;;;5.50;100.00
75640;BME280;64233;51.486;6.332;2024-02-23T09:12:01;155864.13;;;5.52;100.00
75640;BME280;64233;51.486;6.332;2024-02-23T09:14:27;155867.94;;;5.54;100.00
75640;BME280;64233;51.486;6.332;2024-02-23T09:16:52;155870.53;;;5.55;100.00
75640;BME280;64233;51.486;6.332;2024-02-23T09:19:18;155882.03;;;5.59;100.00
75640;BME280;64233;51.486;6.332;2024-02-23T09:21:44;155889.72;;;5.62;100.00
75640;BME280;64233;51.486;6.332;2024-02-23T09:24:09;155894.88;;;5.64;100.00
75640;BME280;64233;51.486;6.332;2024-02-23T09:26:34;155896.13;;;5.65;100.00
75640;BME280;64233;51.486;6.332;2024-02-23T09:29:00;155892.28;;;5.63;100.00
75640;BME280;64233;51.486;6.332;2024-02-23T09:31:25;155897.41;;;5.65;100.00
75640;BME280;64233;51.486;6.332;2024-02-23T09:33:53;155914.06;;;5.72;100.00
75640;BME280;64233;51.486;6.332;2024-02-23T09:36:19;155946.09;;;5.85;100.00
75640;BME280;64233;51.486;6.332;2024-02-23T09:38:44;155955.06;;;5.89;100.00
75640;BME280;64233;51.486;6.332;2024-02-23T09:41:17;155984.56;;;6.00;100.00
75640;BME280;64233;51.486;6.332;2024-02-23T09:43:44;155960.19;;;5.91;100.00
75640;BME280;64233;51.486;6.332;2024-02-23T09:46:11;155967.84;;;5.94;100.00
75640;BME280;64233;51.486;6.332;2024-02-23T09:48:38;155985.84;;;6.01;100.00
75640;BME280;64233;51.486;6.332;2024-02-23T09:51:05;155983.31;;;6.00;100.00
75640;BME280;64233;51.486;6.332;2024-02-23T09:53:31;155976.91;;;5.97;100.00
75640;BME280;64233;51.486;6.332;2024-02-23T09:55:57;155992.25;;;6.03;100.00
75640;BME280;64233;51.486;6.332;2024-02-23T09:58:24;156005.09;;;6.09;100.00
75640;BME280;64233;51.486;6.332;2024-02-23T10:00:51;156001.25;;;6.07;100.00
75640;BME280;64233;51.486;6.332;2024-02-23T10:03:17;156010.19;;;6.11;100.00
75640;BME280;64233;51.486;6.332;2024-02-23T10:05:42;156002.50;;;6.08;100.00
75640;BME280;64233;51.486;6.332;2024-02-23T10:08:09;156003.81;;;6.08;100.00
75640;BME280;64233;51.486;6.332;2024-02-23T10:10:35;155999.94;;;6.07;100.00
75640;BME280;64233;51.486;6.332;2024-02-23T10:13:01;155989.72;;;6.02;100.00
75640;BME280;64233;51.486;6.332;2024-02-23T10:15:29;155979.47;;;5.98;100.00
75640;BME280;64233;51.486;6.332;2024-02-23T10:17:55;155978.16;;;5.98;100.00
75640;BME280;64233;51.486;6.332;2024-02-23T10:20:20;155976.91;;;5.97;100.00
75640;BME280;64233;51.486;6.332;2024-02-23T10:22:45;155987.16;;;6.01;100.00
75640;BME280;64233;51.486;6.332;2024-02-23T10:25:11;155997.41;;;6.06;100.00
75640;BME280;64233;51.486;6.332;2024-02-23T10:27:37;156003.81;;;6.08;100.00
75640;BME280;64233;51.486;6.332;2024-02-23T10:30:02;156006.34;;;6.09;100.00
75640;BME280;64233;51.486;6.332;2024-02-23T10:32:29;156016.59;;;6.13;100.00
75640;BME280;64233;51.486;6.332;2024-02-23T10:35:00;156019.19;;;6.14;100.00
75640;BME280;64233;51.486;6.332;2024-02-23T10:37:26;156029.44;;;6.18;100.00
75640;BME280;64233;51.486;6.332;2024-02-23T10:39:55;156034.53;;;6.20;100.00
75640;BME280;64233;51.486;6.332;2024-02-23T10:42:23;156039.69;;;6.23;100.00
75640;BME280;64233;51.486;6.332;2024-02-23T10:44:51;156040.94;;;6.23;100.00
75640;BME280;64233;51.486;6.332;2024-02-23T10:47:19;156044.78;;;6.25;100.00
75640;BME280;64233;51.486;6.332;2024-02-23T10:49:46;156056.31;;;6.29;100.00
75640;BME280;64233;51.486;6.332;2024-02-23T10:52:13;156060.19;;;6.31;100.00
75640;BME280;64233;51.486;6.332;2024-02-23T10:54:40;156071.72;;;6.35;100.00
75640;BME280;64233;51.486;6.332;2024-02-23T10:57:06;156084.50;;;6.41;100.00
75640;BME280;64233;51.486;6.332;2024-02-23T10:59:31;156087.09;;;6.42;100.00
75640;BME280;64233;51.486;6.332;2024-02-23T11:01:57;156081.97;;;6.40;100.00
75640;BME280;64233;51.486;6.332;2024-02-23T11:04:26;156067.88;;;6.34;100.00
75640;BME280;64233;51.486;6.332;2024-02-23T11:06:54;156070.41;;;6.35;100.00
75640;BME280;64233;51.486;6.332;2024-02-23T11:09:22;156061.47;;;6.31;100.00
75640;BME280;64233;51.486;6.332;2024-02-23T11:11:55;156049.94;;;6.27;100.00
75640;BME280;64233;51.486;6.332;2024-02-23T11:16:57;156023.00;;;6.16;100.00
75640;BME280;64233;51.486;6.332;2024-02-23T11:19:32;156026.88;;;6.17;100.00
75640;BME280;64233;51.486;6.332;2024-02-23T11:21:58;156024.28;;;6.16;100.00
75640;BME280;64233;51.486;6.332;2024-02-23T11:24:27;156032.00;;;6.19;100.00
75640;BME280;64233;51.486;6.332;2024-02-23T11:26:59;156017.91;;;6.14;100.00
75640;BME280;64233;51.486;6.332;2024-02-23T11:29:29;156029.44;;;6.18;100.00
75640;BME280;64233;51.486;6.332;2024-02-23T11:31:55;156014.03;;;6.12;100.00
75640;BME280;64233;51.486;6.332;2024-02-23T11:34:26;155998.66;;;6.06;100.00
75640;BME280;64233;51.486;6.332;2024-02-23T11:36:51;156005.09;;;6.09;100.00
75640;BME280;64233;51.486;6.332;2024-02-23T11:39:19;156030.69;;;6.19;100.00
75640;BME280;64233;51.486;6.332;2024-02-23T11:41:44;156044.78;;;6.25;100.00
75640;BME280;64233;51.486;6.332;2024-02-23T11:44:10;156064.03;;;6.32;100.00
75640;BME280;64233;51.486;6.332;2024-02-23T11:46:35;156087.09;;;6.42;100.00
75640;BME280;64233;51.486;6.332;2024-02-23T11:49:00;156099.91;;;6.47;100.00
75640;BME280;64233;51.486;6.332;2024-02-23T11:51:26;156096.09;;;6.45;100.00
75640;BME280;64233;51.486;6.332;2024-02-23T11:53:55;156094.78;;;6.45;100.00
75640;BME280;64233;51.486;6.332;2024-02-23T11:56:22;156102.50;;;6.48;100.00
75640;BME280;64233;51.486;6.332;2024-02-23T11:58:48;156126.81;;;6.58;100.00
75640;BME280;64233;51.486;6.332;2024-02-23T12:01:14;156124.28;;;6.57;100.00
75640;BME280;64233;51.486;6.332;2024-02-23T12:03:40;156106.34;;;6.49;100.00
75640;BME280;64233;51.486;6.332;2024-02-23T12:06:07;156089.66;;;6.43;100.00
75640;BME280;64233;51.486;6.332;2024-02-23T12:08:32;156079.41;;;6.38;100.00
75640;BME280;64233;51.486;6.332;2024-02-23T12:11:03;156065.31;;;6.33;100.00
75640;BME280;64233;51.486;6.332;2024-02-23T12:13:29;156061.47;;;6.31;100.00
75640;BME280;64233;51.486;6.332;2024-02-23T12:15:54;156081.97;;;6.40;100.00
75640;BME280;64233;51.486;6.332;2024-02-23T12:18:23;156078.13;;;6.38;100.00
75640;BME280;64233;51.486;6.332;2024-02-23T12:20:51;156071.72;;;6.35;100.00
75640;BME280;64233;51.486;6.332;2024-02-23T12:23:17;156070.41;;;6.35;100.00
75640;BME280;64233;51.486;6.332;2024-02-23T12:25:56;156097.34;;;6.46;100.00
75640;BME280;64233;51.486;6.332;2024-02-23T12:28:22;156108.88;;;6.50;100.00
75640;BME280;64233;51.486;6.332;2024-02-23T12:30:58;156108.88;;;6.50;100.00
75640;BME280;64233;51.486;6.332;2024-02-23T12:33:27;156115.28;;;6.53;100.00
75640;BME280;64233;51.486;6.332;2024-02-23T12:35:54;156124.28;;;6.57;100.00
75640;BME280;64233;51.486;6.332;2024-02-23T12:38:20;156126.81;;;6.58;100.00
75640;BME280;64233;51.486;6.332;2024-02-23T12:40:45;156126.81;;;6.58;100.00
75640;BME280;64233;51.486;6.332;2024-02-23T12:43:10;156122.97;;;6.56;100.00
75640;BME280;64233;51.486;6.332;2024-02-23T12:45:36;156117.88;;;6.54;100.00